createdAt,value
2022-09-10T00:01:59.405Z,22.18
2022-09-10T00:04:26.687Z,22.16
2022-09-10T00:06:53.783Z,22.17
2022-09-10T00:09:20.223Z,22.14
2022-09-10T00:11:46.858Z,22.11
2022-09-10T00:14:19.014Z,22.08
2022-09-10T00:16:45.851Z,22.07
2022-09-10T00:19:12.620Z,22.05
2022-09-10T00:21:39.212Z,22.04
2022-09-10T00:24:05.983Z,22.02
2022-09-10T00:26:38.117Z,21.99
2022-09-10T00:29:06.650Z,22.00
2022-09-10T00:31:34.043Z,22.00
2022-09-10T00:34:02.155Z,22.01
2022-09-10T00:36:36.054Z,22.00
2022-09-10T00:39:06.532Z,22.03
2022-09-10T00:41:34.745Z,22.05
2022-09-10T00:44:04.911Z,22.07
2022-09-10T00:46:46.058Z,22.07
2022-09-10T00:49:21.327Z,22.11
2022-09-10T00:51:51.375Z,22.11
2022-09-10T00:54:21.945Z,22.11
2022-09-10T00:56:49.734Z,22.11
2022-09-10T00:59:20.298Z,22.10
2022-09-10T01:01:48.097Z,22.09
2022-09-10T01:04:15.556Z,22.08
2022-09-10T01:06:45.701Z,22.06
2022-09-10T01:09:14.342Z,22.04
2022-09-10T01:11:49.877Z,22.04
2022-09-10T01:14:28.402Z,22.02
2022-09-10T01:16:57.903Z,22.03
2022-09-10T01:19:43.080Z,22.04
2022-09-10T01:22:28.205Z,21.97
2022-09-10T01:25:06.706Z,21.95
2022-09-10T01:27:53.332Z,21.96
2022-09-10T01:30:24.421Z,21.99
2022-09-10T01:33:09.355Z,21.95
2022-09-10T01:35:48.202Z,21.95
2022-09-10T01:38:20.617Z,21.97
2022-09-10T01:40:48.319Z,21.99
2022-09-10T01:43:14.935Z,22.02
2022-09-10T01:46:14.490Z,21.99
2022-09-10T01:48:59.820Z,22.02
2022-09-10T01:51:41.274Z,22.03
2022-09-10T01:54:24.747Z,22.07
2022-09-10T01:56:55.782Z,22.05
2022-09-10T01:59:40.460Z,22.07
2022-09-10T02:02:13.388Z,22.06
2022-09-10T02:04:42.464Z,22.06
2022-09-10T02:07:11.317Z,22.05
2022-09-10T02:09:38.492Z,22.04
2022-09-10T02:12:05.167Z,22.03
2022-09-10T02:14:31.792Z,22.02
2022-09-10T02:17:00.840Z,21.99
2022-09-10T02:19:27.808Z,21.98
2022-09-10T02:21:57.045Z,21.97
2022-09-10T02:24:23.810Z,21.97
2022-09-10T02:26:51.089Z,21.96
2022-09-10T02:29:19.249Z,21.94
2022-09-10T02:31:46.450Z,21.95
2022-09-10T02:34:13.154Z,21.94
2022-09-10T02:36:40.468Z,21.94
2022-09-10T02:39:08.027Z,21.93
2022-09-10T02:41:35.182Z,21.92
2022-09-10T02:44:02.415Z,21.91
2022-09-10T02:46:29.546Z,21.91
2022-09-10T02:48:56.313Z,21.91
2022-09-10T02:51:23.731Z,21.89
2022-09-10T02:53:50.479Z,21.88
2022-09-10T02:56:19.526Z,21.86
2022-09-10T02:58:46.239Z,21.85
2022-09-10T03:01:15.359Z,21.85
2022-09-10T03:03:42.841Z,21.86
2022-09-10T03:06:10.132Z,21.85
2022-09-10T03:08:36.765Z,21.86
2022-09-10T03:11:04.438Z,21.86
2022-09-10T03:13:30.977Z,21.86
2022-09-10T03:16:04.009Z,21.86
2022-09-10T03:18:35.370Z,21.87
2022-09-10T03:21:20.190Z,21.83
2022-09-10T03:23:49.460Z,21.87
2022-09-10T03:26:17.599Z,21.90
2022-09-10T03:28:44.986Z,21.91
2022-09-10T03:31:11.742Z,21.92
2022-09-10T03:33:38.294Z,21.94
2022-09-10T03:36:05.403Z,21.95
2022-09-10T03:38:32.613Z,21.96
2022-09-10T03:41:02.018Z,21.96
2022-09-10T03:43:29.172Z,21.96
2022-09-10T03:45:55.669Z,21.96
2022-09-10T03:48:23.031Z,21.96
2022-09-10T03:50:50.908Z,21.97
2022-09-10T03:53:19.082Z,21.96
2022-09-10T03:55:47.553Z,21.96
2022-09-10T03:58:15.333Z,21.96
2022-09-10T04:00:42.920Z,21.95
2022-09-10T04:03:11.022Z,21.93
2022-09-10T04:05:43.525Z,21.92
2022-09-10T04:08:11.338Z,21.92
2022-09-10T04:10:39.101Z,21.93
2022-09-10T04:13:05.708Z,21.93
2022-09-10T04:15:32.155Z,21.92
2022-09-10T04:17:58.717Z,21.92
2022-09-10T04:20:25.791Z,21.92
2022-09-10T04:22:53.685Z,21.93
2022-09-10T04:25:20.503Z,21.92
2022-09-10T04:27:47.519Z,21.91
2022-09-10T04:30:14.374Z,21.90
2022-09-10T04:32:40.971Z,21.90
2022-09-10T04:35:08.119Z,21.89
2022-09-10T04:37:35.022Z,21.89
2022-09-10T04:40:02.003Z,21.89
2022-09-10T04:42:28.632Z,21.88
2022-09-10T04:44:55.108Z,21.89
2022-09-10T04:47:21.571Z,21.88
2022-09-10T04:49:48.048Z,21.90
2022-09-10T04:52:17.120Z,21.91
2022-09-10T04:54:43.598Z,21.90
2022-09-10T04:57:10.086Z,21.91
2022-09-10T04:59:36.569Z,21.90
2022-09-10T05:02:03.734Z,21.91
2022-09-10T05:04:30.360Z,21.91
2022-09-10T05:06:57.791Z,21.93
2022-09-10T05:09:24.509Z,21.93
2022-09-10T05:11:51.070Z,21.95
2022-09-10T05:14:17.584Z,21.96
2022-09-10T05:16:45.475Z,21.95
2022-09-10T05:19:17.805Z,21.97
2022-09-10T05:21:45.287Z,21.98
2022-09-10T05:24:12.499Z,22.00
2022-09-10T05:26:39.951Z,22.01
2022-09-10T05:29:06.706Z,22.02
2022-09-10T05:31:35.110Z,22.06
2022-09-10T05:34:01.928Z,22.08
2022-09-10T05:36:29.329Z,22.10
2022-09-10T05:38:55.807Z,22.11
2022-09-10T05:41:22.374Z,22.13
2022-09-10T05:43:48.897Z,22.12
2022-09-10T05:46:15.922Z,22.12
2022-09-10T05:48:43.153Z,22.12
2022-09-10T05:51:09.825Z,22.14
2022-09-10T05:53:36.308Z,22.15
2022-09-10T05:56:02.951Z,22.15
2022-09-10T05:58:30.084Z,22.16
2022-09-10T06:00:58.116Z,22.17
2022-09-10T06:03:24.744Z,22.19
2022-09-10T06:05:51.839Z,22.21
2022-09-10T06:08:21.114Z,22.21
2022-09-10T06:11:05.107Z,22.19
2022-09-10T06:13:33.108Z,22.24
2022-09-10T06:16:00.246Z,22.26
2022-09-10T06:18:26.984Z,22.27
2022-09-10T06:21:09.410Z,22.25
2022-09-10T06:23:39.307Z,22.30
2022-09-10T06:26:09.759Z,22.31
2022-09-10T06:28:36.300Z,22.33
2022-09-10T06:31:04.452Z,22.36
2022-09-10T06:33:31.794Z,22.37
2022-09-10T06:36:00.677Z,22.40
2022-09-10T06:38:33.526Z,22.41
2022-09-10T06:41:02.198Z,22.44
2022-09-10T06:43:33.109Z,22.44
2022-09-10T06:45:59.880Z,22.49
2022-09-10T06:48:48.054Z,22.50
2022-09-10T06:51:15.437Z,22.54
2022-09-10T06:53:43.908Z,22.58
2022-09-10T06:56:12.146Z,22.57
2022-09-10T06:58:39.809Z,22.57
2022-09-10T07:01:14.853Z,22.55
2022-09-10T07:03:43.469Z,22.54
2022-09-10T07:06:11.069Z,22.53
2022-09-10T07:08:37.590Z,22.56
2022-09-10T07:11:08.078Z,22.51
2022-09-10T07:13:35.289Z,22.47
2022-09-10T07:16:01.923Z,22.45
2022-09-10T07:18:28.856Z,22.43
2022-09-10T07:21:06.780Z,22.40
2022-09-10T07:23:33.310Z,22.41
2022-09-10T07:26:08.124Z,22.38
2022-09-10T07:28:36.257Z,22.39
2022-09-10T07:31:13.677Z,22.35
2022-09-10T07:33:40.639Z,22.39
2022-09-10T07:36:08.287Z,22.40
2022-09-10T07:38:34.874Z,22.42
2022-09-10T07:41:02.036Z,22.45
2022-09-10T07:43:29.287Z,22.48
2022-09-10T07:45:56.094Z,22.52
2022-09-10T07:48:22.672Z,22.56
2022-09-10T07:50:49.311Z,22.61
2022-09-10T07:53:16.437Z,22.64
2022-09-10T07:55:42.898Z,22.66
2022-09-10T07:58:10.188Z,22.67
2022-09-10T08:00:36.833Z,22.67
2022-09-10T08:03:04.230Z,22.71
2022-09-10T08:05:31.070Z,22.73
2022-09-10T08:07:58.071Z,22.76
2022-09-10T08:10:24.535Z,22.79
2022-09-10T08:12:51.037Z,22.81
2022-09-10T08:15:18.095Z,22.82
2022-09-10T08:17:44.645Z,22.84
2022-09-10T08:20:11.210Z,22.86
2022-09-10T08:22:37.708Z,22.86
2022-09-10T08:25:04.596Z,22.87
2022-09-10T08:27:32.588Z,22.89
2022-09-10T08:29:59.032Z,22.89
2022-09-10T08:32:25.648Z,22.89
2022-09-10T08:34:52.456Z,22.90
2022-09-10T08:37:19.101Z,22.92
2022-09-10T08:39:45.725Z,22.94
2022-09-10T08:42:39.956Z,22.97
2022-09-10T08:45:16.055Z,23.05
2022-09-10T08:47:49.262Z,23.15
2022-09-10T08:50:19.086Z,23.21
2022-09-10T08:53:22.982Z,23.26
2022-09-10T08:55:50.980Z,23.39
2022-09-10T08:58:25.280Z,23.43
2022-09-10T09:00:57.980Z,23.50
2022-09-10T09:03:47.756Z,23.52
2022-09-10T09:06:41.234Z,23.58
2022-09-10T09:09:15.311Z,23.63
2022-09-10T09:11:59.453Z,23.65
2022-09-10T09:14:36.036Z,23.70
2022-09-10T09:17:09.226Z,23.73
2022-09-10T09:19:38.870Z,23.79
2022-09-10T09:22:17.269Z,23.82
2022-09-10T09:24:44.195Z,23.90
2022-09-10T09:27:16.801Z,23.97
2022-09-10T09:30:15.670Z,24.00
2022-09-10T09:32:45.279Z,24.08
2022-09-10T09:35:19.919Z,24.11
2022-09-10T09:37:50.159Z,24.20
2022-09-10T09:40:19.580Z,24.26
2022-09-10T09:43:12.325Z,24.32
2022-09-10T09:45:44.149Z,24.40
2022-09-10T09:48:15.521Z,24.45
2022-09-10T09:50:48.092Z,24.51
2022-09-10T09:53:25.176Z,24.55
2022-09-10T09:56:03.437Z,24.58
2022-09-10T09:58:33.577Z,24.64
2022-09-10T10:01:13.194Z,24.64
2022-09-10T10:03:50.320Z,24.65
2022-09-10T10:06:19.659Z,24.69
2022-09-10T10:08:56.062Z,24.66
2022-09-10T10:11:39.231Z,24.69
2022-09-10T10:14:24.041Z,24.68
2022-09-10T10:16:57.302Z,24.69
2022-09-10T10:19:38.470Z,24.68
2022-09-10T10:22:14.130Z,24.73
2022-09-10T10:24:51.565Z,24.75
2022-09-10T10:27:32.947Z,24.71
2022-09-10T10:30:03.929Z,24.70
2022-09-10T10:32:52.306Z,24.66
2022-09-10T10:35:23.265Z,24.71
2022-09-10T10:38:15.833Z,24.70
2022-09-10T10:40:57.124Z,24.69
2022-09-10T10:43:54.547Z,24.64
2022-09-10T10:46:27.975Z,24.65
2022-09-10T10:49:03.635Z,24.61
2022-09-10T10:52:01.428Z,24.54
2022-09-10T10:54:37.451Z,24.58
2022-09-10T10:57:25.007Z,24.55
2022-09-10T11:00:14.427Z,24.52
2022-09-10T11:03:09.326Z,24.49
2022-09-10T11:05:38.559Z,24.51
2022-09-10T11:08:27.840Z,24.44
2022-09-10T11:11:33.543Z,24.43
2022-09-10T11:14:23.143Z,24.40
2022-09-10T11:17:16.603Z,24.35
2022-09-10T11:20:24.762Z,24.34
2022-09-10T11:22:53.550Z,24.30
2022-09-10T11:25:30.439Z,24.24
2022-09-10T11:28:05.933Z,24.20
2022-09-10T11:30:35.127Z,24.18
2022-09-10T11:33:25.417Z,24.14
2022-09-10T11:36:11.774Z,24.09
2022-09-10T11:39:05.698Z,24.05
2022-09-10T11:41:35.672Z,24.04
2022-09-10T11:44:36.614Z,23.95
2022-09-10T11:47:03.235Z,23.90
2022-09-10T11:49:52.291Z,23.78
2022-09-10T11:52:21.331Z,23.73
2022-09-10T11:54:47.882Z,23.64
2022-09-10T11:57:14.311Z,23.54
2022-09-10T12:00:01.998Z,23.45
2022-09-10T12:03:09.964Z,23.34
2022-09-10T12:06:09.368Z,23.27
2022-09-10T12:09:04.187Z,23.18
2022-09-10T12:12:08.180Z,23.09
2022-09-10T12:14:39.440Z,23.03
2022-09-10T12:17:31.473Z,22.94
2022-09-10T12:20:00.068Z,22.94
2022-09-10T12:22:29.745Z,22.92
2022-09-10T12:25:03.124Z,22.92
2022-09-10T12:27:49.952Z,22.85
2022-09-10T12:30:25.319Z,22.82
2022-09-10T12:32:55.535Z,22.82
2022-09-10T12:35:37.993Z,22.78
2022-09-10T12:38:42.115Z,22.77
2022-09-10T12:41:32.439Z,22.80
2022-09-10T12:44:00.267Z,22.82
2022-09-10T12:46:28.703Z,22.82
2022-09-10T12:48:58.985Z,22.83
2022-09-10T12:51:47.467Z,22.79
2022-09-10T12:54:29.526Z,22.81
2022-09-10T12:57:05.309Z,22.82
2022-09-10T12:59:53.484Z,22.87
2022-09-10T13:02:26.080Z,22.87
2022-09-10T13:05:00.194Z,22.88
2022-09-10T13:07:37.307Z,22.90
2022-09-10T13:10:22.523Z,22.92
2022-09-10T13:12:55.441Z,22.96
2022-09-10T13:15:25.704Z,22.99
2022-09-10T13:17:52.104Z,23.02
2022-09-10T13:20:29.522Z,23.04
2022-09-10T13:22:58.885Z,23.07
2022-09-10T13:25:41.579Z,23.06
2022-09-10T13:28:33.776Z,23.09
2022-09-10T13:31:04.923Z,23.14
2022-09-10T13:33:44.792Z,23.15
2022-09-10T13:36:16.669Z,23.18
2022-09-10T13:38:56.835Z,23.19
2022-09-10T13:41:49.093Z,23.19
2022-09-10T13:44:30.980Z,23.21
2022-09-10T13:47:03.304Z,23.24
2022-09-10T13:50:14.699Z,23.23
2022-09-10T13:52:45.702Z,23.27
2022-09-10T13:55:30.239Z,23.25
2022-09-10T13:58:01.281Z,23.30
2022-09-10T14:00:36.007Z,23.30
2022-09-10T14:03:13.152Z,23.34
2022-09-10T14:05:50.779Z,23.33
2022-09-10T14:08:24.166Z,23.38
2022-09-10T14:10:53.040Z,23.41
2022-09-10T14:13:35.056Z,23.42
2022-09-10T14:16:04.195Z,23.46
2022-09-10T14:18:45.426Z,23.46
2022-09-10T14:21:17.106Z,23.49
2022-09-10T14:23:48.170Z,23.51
2022-09-10T14:26:24.285Z,23.54
2022-09-10T14:28:56.833Z,23.56
2022-09-10T14:31:30.778Z,23.59
2022-09-10T14:33:59.116Z,23.63
2022-09-10T14:36:29.622Z,23.65
2022-09-10T14:39:20.174Z,23.66
2022-09-10T14:41:47.549Z,23.70
2022-09-10T14:44:23.253Z,23.70
2022-09-10T14:46:52.802Z,23.72
2022-09-10T14:49:29.062Z,23.73
2022-09-10T14:51:56.828Z,23.77
2022-09-10T14:54:24.449Z,23.79
2022-09-10T14:56:51.189Z,23.80
2022-09-10T14:59:30.330Z,23.80
2022-09-10T15:01:59.178Z,23.82
2022-09-10T15:04:26.714Z,23.81
2022-09-10T15:06:54.746Z,23.83
2022-09-10T15:09:21.999Z,23.82
2022-09-10T15:12:06.867Z,23.79
2022-09-10T15:14:34.201Z,23.83
2022-09-10T15:17:00.979Z,23.85
2022-09-10T15:19:27.895Z,23.86
2022-09-10T15:21:56.175Z,23.89
2022-09-10T15:24:23.268Z,23.89
2022-09-10T15:26:50.758Z,23.90
2022-09-10T15:29:17.990Z,23.89
2022-09-10T15:31:45.091Z,23.89
2022-09-10T15:34:12.129Z,23.87
2022-09-10T15:36:40.200Z,23.85
2022-09-10T15:39:08.191Z,23.84
2022-09-10T15:41:34.682Z,23.83
2022-09-10T15:44:02.871Z,23.81
2022-09-10T15:46:29.505Z,23.81
2022-09-10T15:48:58.735Z,23.79
2022-09-10T15:51:25.552Z,23.78
2022-09-10T15:53:53.297Z,23.78
2022-09-10T15:56:21.484Z,23.76
2022-09-10T15:58:49.794Z,23.75
2022-09-10T16:01:16.402Z,23.75
2022-09-10T16:03:50.301Z,23.73
2022-09-10T16:06:19.395Z,23.73
2022-09-10T16:11:20.202Z,23.72
2022-09-10T16:13:46.877Z,23.72
2022-09-10T16:16:18.606Z,23.70
2022-09-10T16:18:45.911Z,23.69
2022-09-10T16:21:15.666Z,23.67
2022-09-10T16:23:43.086Z,23.67
2022-09-10T16:26:15.755Z,23.66
2022-09-10T16:28:48.336Z,23.66
2022-09-10T16:31:17.188Z,23.66
2022-09-10T16:33:43.788Z,23.69
2022-09-10T16:36:10.930Z,23.69
2022-09-10T16:38:37.794Z,23.70
2022-09-10T16:41:06.562Z,23.69
2022-09-10T16:43:36.768Z,23.70
2022-09-10T16:46:09.283Z,23.69
2022-09-10T16:48:37.283Z,23.71
2022-09-10T16:51:07.236Z,23.70
2022-09-10T16:53:36.528Z,23.71
2022-09-10T16:58:35.803Z,23.71
2022-09-10T17:01:06.026Z,23.69
2022-09-10T17:03:32.787Z,23.69
2022-09-10T17:06:00.010Z,23.68
2022-09-10T17:08:29.286Z,23.66
2022-09-10T17:10:56.258Z,23.66
2022-09-10T17:13:22.843Z,23.63
2022-09-10T17:15:49.330Z,23.62
2022-09-10T17:18:16.574Z,23.60
2022-09-10T17:20:44.735Z,23.58
2022-09-10T17:23:13.370Z,23.57
2022-09-10T17:25:39.862Z,23.57
2022-09-10T17:28:06.410Z,23.55
2022-09-10T17:30:32.941Z,23.55
2022-09-10T17:32:59.619Z,23.55
2022-09-10T17:35:26.141Z,23.54
2022-09-10T17:37:52.839Z,23.53
2022-09-10T17:40:20.783Z,23.53
2022-09-10T17:42:48.986Z,23.53
2022-09-10T17:45:16.164Z,23.54
2022-09-10T17:47:42.693Z,23.54
2022-09-10T17:50:09.369Z,23.52
2022-09-10T17:52:35.871Z,23.51
2022-09-10T17:55:02.612Z,23.50
2022-09-10T17:57:29.067Z,23.49
2022-09-10T17:59:55.507Z,23.48
2022-09-10T18:02:22.021Z,23.45
2022-09-10T18:04:50.138Z,23.43
2022-09-10T18:07:16.619Z,23.43
2022-09-10T18:09:43.074Z,23.40
2022-09-10T18:12:09.647Z,23.38
2022-09-10T18:14:37.270Z,23.37
2022-09-10T18:17:03.785Z,23.36
2022-09-10T18:19:30.283Z,23.32
2022-09-10T18:21:56.773Z,23.31
2022-09-10T18:24:24.058Z,23.29
2022-09-10T18:26:56.441Z,23.27
2022-09-10T18:29:29.942Z,23.25
2022-09-10T18:31:58.580Z,23.25
2022-09-10T18:34:26.906Z,23.27
2022-09-10T18:36:57.542Z,23.29
2022-09-10T18:39:26.420Z,23.26
2022-09-10T18:41:53.588Z,23.25
2022-09-10T18:44:29.120Z,23.20
2022-09-10T18:46:56.093Z,23.21
2022-09-10T18:49:26.464Z,23.20
2022-09-10T18:51:55.051Z,23.19
2022-09-10T18:54:22.104Z,23.22
2022-09-10T18:56:49.521Z,23.25
2022-09-10T18:59:20.204Z,23.22
2022-09-10T19:01:48.170Z,23.23
2022-09-10T19:04:17.324Z,23.23
2022-09-10T19:06:46.876Z,23.23
2022-09-10T19:09:19.019Z,23.21
2022-09-10T19:11:47.009Z,23.22
2022-09-10T19:14:19.270Z,23.22
2022-09-10T19:16:47.969Z,23.24
2022-09-10T19:19:18.564Z,23.22
2022-09-10T19:21:50.656Z,23.22
2022-09-10T19:24:22.772Z,23.22
2022-09-10T19:26:56.801Z,23.22
2022-09-10T19:29:23.711Z,23.21
2022-09-10T19:31:51.018Z,23.19
2022-09-10T19:34:19.591Z,23.18
2022-09-10T19:36:46.608Z,23.18
2022-09-10T19:39:15.822Z,23.20
2022-09-10T19:41:44.102Z,23.17
2022-09-10T19:44:12.646Z,23.15
2022-09-10T19:46:40.971Z,23.14
2022-09-10T19:49:08.097Z,23.15
2022-09-10T19:51:37.798Z,23.12
2022-09-10T19:54:06.632Z,23.10
2022-09-10T19:56:39.854Z,23.06
2022-09-10T19:59:08.685Z,23.05
2022-09-10T20:01:41.036Z,23.02
2022-09-10T20:04:10.924Z,23.03
2022-09-10T20:06:38.523Z,23.02
2022-09-10T20:09:06.573Z,23.02
2022-09-10T20:11:35.184Z,23.02
2022-09-10T20:14:04.235Z,23.01
2022-09-10T20:16:31.319Z,23.02
2022-09-10T20:18:57.895Z,23.01
2022-09-10T20:21:27.831Z,22.99
2022-09-10T20:23:56.263Z,23.01
2022-09-10T20:26:29.197Z,22.98
2022-09-10T20:28:58.115Z,23.00
2022-09-10T20:31:27.768Z,22.99
2022-09-10T20:33:59.688Z,22.98
2022-09-10T20:36:27.848Z,22.98
2022-09-10T20:38:55.494Z,22.96
2022-09-10T20:41:30.234Z,22.94
2022-09-10T20:43:59.282Z,22.92
2022-09-10T20:46:27.823Z,22.89
2022-09-10T20:48:55.325Z,22.89
2022-09-10T20:51:21.807Z,22.93
2022-09-10T20:53:48.582Z,22.89
2022-09-10T20:56:18.414Z,22.87
2022-09-10T20:58:46.205Z,22.86
2022-09-10T21:01:18.991Z,22.84
2022-09-10T21:03:47.847Z,22.83
2022-09-10T21:06:19.298Z,22.83
2022-09-10T21:08:49.852Z,22.83
2022-09-10T21:11:19.482Z,22.82
2022-09-10T21:13:53.564Z,22.80
2022-09-10T21:16:33.934Z,22.79
2022-09-10T21:19:03.560Z,22.81
2022-09-10T21:21:31.903Z,22.81
2022-09-10T21:24:07.419Z,22.78
2022-09-10T21:26:35.860Z,22.79
2022-09-10T21:29:04.400Z,22.79
2022-09-10T21:31:31.160Z,22.80
2022-09-10T21:34:02.732Z,22.83
2022-09-10T21:36:31.409Z,22.80
2022-09-10T21:39:00.383Z,22.78
2022-09-10T21:41:36.455Z,22.74
2022-09-10T21:44:05.293Z,22.76
2022-09-10T21:46:32.408Z,22.76
2022-09-10T21:48:59.545Z,22.76
2022-09-10T21:51:26.722Z,22.75
2022-09-10T21:53:54.975Z,22.76
2022-09-10T21:56:22.747Z,22.77
2022-09-10T21:58:49.467Z,22.79
2022-09-10T22:01:19.554Z,22.79
2022-09-10T22:03:47.442Z,22.81
2022-09-10T22:06:15.457Z,22.79
2022-09-10T22:08:44.076Z,22.79
2022-09-10T22:11:15.062Z,22.82
2022-09-10T22:13:43.032Z,22.83
2022-09-10T22:16:12.475Z,22.81
2022-09-10T22:18:40.020Z,22.78
2022-09-10T22:21:07.484Z,22.78
2022-09-10T22:23:36.443Z,22.75
2022-09-10T22:26:11.887Z,22.74
2022-09-10T22:28:39.116Z,22.74
2022-09-10T22:31:13.149Z,22.72
2022-09-10T22:33:41.859Z,22.72
2022-09-10T22:36:21.418Z,22.68
2022-09-10T22:38:52.577Z,22.69
2022-09-10T22:41:19.652Z,22.69
2022-09-10T22:43:46.220Z,22.67
2022-09-10T22:46:13.383Z,22.65
2022-09-10T22:48:42.498Z,22.64
2022-09-10T22:51:15.147Z,22.62
2022-09-10T22:53:42.888Z,22.63
2022-09-10T22:56:11.732Z,22.61
2022-09-10T22:58:38.262Z,22.60
2022-09-10T23:01:16.266Z,22.54
2022-09-10T23:03:44.213Z,22.56
2022-09-10T23:06:16.384Z,22.53
2022-09-10T23:08:45.172Z,22.51
2022-09-10T23:11:15.454Z,22.49
2022-09-10T23:13:47.632Z,22.47
2022-09-10T23:16:28.900Z,22.43
2022-09-10T23:18:57.917Z,22.43
2022-09-10T23:21:26.176Z,22.41
2022-09-10T23:23:55.423Z,22.39
2022-09-10T23:26:22.563Z,22.36
2022-09-10T23:28:49.424Z,22.32
2022-09-10T23:31:24.725Z,22.27
2022-09-10T23:34:03.594Z,22.22
2022-09-10T23:36:33.700Z,22.20
2022-09-10T23:39:01.523Z,22.17
2022-09-10T23:41:29.845Z,22.14
2022-09-10T23:43:57.199Z,22.10
2022-09-10T23:46:24.219Z,22.07
2022-09-10T23:48:51.585Z,22.05
2022-09-10T23:51:20.871Z,22.01
2022-09-10T23:53:48.466Z,22.01
2022-09-10T23:56:22.031Z,21.95
2022-09-10T23:58:49.516Z,21.95
